sensor_id;sensor_type;location;lat;lon;timestamp;P1;durP1;ratioP1;P2;durP2;ratioP2
17261;SDS011;9873;52.236;21.002;2023-04-19T00:02:55;8.17;;;4.57;;
17261;SDS011;9873;52.236;21.002;2023-04-19T00:13:07;7.07;;;4.18;;
17261;SDS011;9873;52.236;21.002;2023-04-19T00:23:09;6.28;;;4.18;;
17261;SDS011;9873;52.236;21.002;2023-04-19T00:33:12;6.13;;;3.33;;
17261;SDS011;9873;52.236;21.002;2023-04-19T00:43:19;5.73;;;4.27;;
17261;SDS011;9873;52.236;21.002;2023-04-19T00:53:24;4.63;;;3.83;;
17261;SDS011;9873;52.236;21.002;2023-04-19T01:03:31;6.30;;;4.53;;
17261;SDS011;9873;52.236;21.002;2023-04-19T01:13:38;7.60;;;5.53;;
17261;SDS011;9873;52.236;21.002;2023-04-19T01:23:48;8.50;;;6.07;;
17261;SDS011;9873;52.236;21.002;2023-04-19T01:33:52;9.67;;;7.00;;
17261;SDS011;9873;52.236;21.002;2023-04-19T01:43:57;10.60;;;6.37;;
17261;SDS011;9873;52.236;21.002;2023-04-19T01:54:01;12.27;;;7.80;;
17261;SDS011;9873;52.236;21.002;2023-04-19T02:04:05;10.07;;;7.43;;
17261;SDS011;9873;52.236;21.002;2023-04-19T02:14:15;11.90;;;8.27;;
17261;SDS011;9873;52.236;21.002;2023-04-19T02:24:21;11.67;;;7.97;;
17261;SDS011;9873;52.236;21.002;2023-04-19T02:34:27;11.83;;;8.53;;
17261;SDS011;9873;52.236;21.002;2023-04-19T02:44:35;13.43;;;8.50;;
17261;SDS011;9873;52.236;21.002;2023-04-19T02:54:38;10.50;;;7.43;;
17261;SDS011;9873;52.236;21.002;2023-04-19T03:04:43;13.53;;;8.17;;
17261;SDS011;9873;52.236;21.002;2023-04-19T03:14:48;11.43;;;7.57;;
17261;SDS011;9873;52.236;21.002;2023-04-19T03:25:03;11.47;;;8.50;;
17261;SDS011;9873;52.236;21.002;2023-04-19T03:35:09;14.13;;;10.20;;
17261;SDS011;9873;52.236;21.002;2023-04-19T03:45:12;12.73;;;9.20;;
17261;SDS011;9873;52.236;21.002;2023-04-19T03:55:23;14.87;;;10.27;;
17261;SDS011;9873;52.236;21.002;2023-04-19T04:05:30;18.97;;;10.40;;
17261;SDS011;9873;52.236;21.002;2023-04-19T04:15:34;15.43;;;10.13;;
17261;SDS011;9873;52.236;21.002;2023-04-19T04:25:42;12.63;;;9.37;;
17261;SDS011;9873;52.236;21.002;2023-04-19T04:35:47;10.73;;;7.83;;
17261;SDS011;9873;52.236;21.002;2023-04-19T04:45:55;13.33;;;9.57;;
17261;SDS011;9873;52.236;21.002;2023-04-19T04:56:06;13.27;;;9.87;;
17261;SDS011;9873;52.236;21.002;2023-04-19T05:06:14;14.30;;;9.50;;
17261;SDS011;9873;52.236;21.002;2023-04-19T05:16:18;12.87;;;10.57;;
17261;SDS011;9873;52.236;21.002;2023-04-19T05:26:22;18.33;;;13.43;;
17261;SDS011;9873;52.236;21.002;2023-04-19T05:36:28;20.97;;;14.13;;
17261;SDS011;9873;52.236;21.002;2023-04-19T05:46:33;31.57;;;22.60;;
17261;SDS011;9873;52.236;21.002;2023-04-19T05:56:40;21.87;;;14.47;;
17261;SDS011;9873;52.236;21.002;2023-04-19T06:06:45;20.13;;;13.83;;
17261;SDS011;9873;52.236;21.002;2023-04-19T06:16:50;22.60;;;14.63;;
17261;SDS011;9873;52.236;21.002;2023-04-19T06:27:01;23.90;;;15.53;;
17261;SDS011;9873;52.236;21.002;2023-04-19T06:37:04;22.83;;;15.57;;
17261;SDS011;9873;52.236;21.002;2023-04-19T06:47:09;22.97;;;16.37;;
17261;SDS011;9873;52.236;21.002;2023-04-19T06:57:14;23.37;;;17.27;;
17261;SDS011;9873;52.236;21.002;2023-04-19T07:07:19;20.37;;;12.63;;
17261;SDS011;9873;52.236;21.002;2023-04-19T07:17:22;22.23;;;15.27;;
17261;SDS011;9873;52.236;21.002;2023-04-19T07:27:26;27.67;;;15.47;;
17261;SDS011;9873;52.236;21.002;2023-04-19T07:37:30;25.80;;;16.43;;
17261;SDS011;9873;52.236;21.002;2023-04-19T07:47:33;21.37;;;14.47;;
17261;SDS011;9873;52.236;21.002;2023-04-19T07:57:38;22.97;;;14.37;;
17261;SDS011;9873;52.236;21.002;2023-04-19T08:07:44;21.03;;;12.33;;
17261;SDS011;9873;52.236;21.002;2023-04-19T08:17:49;18.47;;;12.20;;
17261;SDS011;9873;52.236;21.002;2023-04-19T08:27:56;15.03;;;12.10;;
17261;SDS011;9873;52.236;21.002;2023-04-19T08:37:59;13.63;;;10.20;;
17261;SDS011;9873;52.236;21.002;2023-04-19T08:48:03;11.10;;;7.17;;
17261;SDS011;9873;52.236;21.002;2023-04-19T08:58:06;12.67;;;9.50;;
17261;SDS011;9873;52.236;21.002;2023-04-19T09:08:26;11.37;;;8.10;;
17261;SDS011;9873;52.236;21.002;2023-04-19T09:18:29;10.57;;;8.23;;
17261;SDS011;9873;52.236;21.002;2023-04-19T09:28:38;11.00;;;8.33;;
17261;SDS011;9873;52.236;21.002;2023-04-19T09:38:46;11.50;;;8.17;;
17261;SDS011;9873;52.236;21.002;2023-04-19T09:48:51;14.17;;;7.87;;
17261;SDS011;9873;52.236;21.002;2023-04-19T09:58:53;10.47;;;7.53;;
17261;SDS011;9873;52.236;21.002;2023-04-19T10:09:16;10.85;;;7.47;;
17261;SDS011;9873;52.236;21.002;2023-04-19T10:19:21;11.02;;;7.85;;
17261;SDS011;9873;52.236;21.002;2023-04-19T10:40:38;8.47;;;6.63;;
17261;SDS011;9873;52.236;21.002;2023-04-19T10:51:01;10.98;;;7.50;;
17261;SDS011;9873;52.236;21.002;2023-04-19T11:11:41;9.53;;;6.50;;
17261;SDS011;9873;52.236;21.002;2023-04-19T11:21:46;9.45;;;6.45;;
17261;SDS011;9873;52.236;21.002;2023-04-19T11:31:51;7.88;;;6.35;;
17261;SDS011;9873;52.236;21.002;2023-04-19T11:41:58;9.77;;;7.22;;
17261;SDS011;9873;52.236;21.002;2023-04-19T11:52:01;8.10;;;6.25;;
17261;SDS011;9873;52.236;21.002;2023-04-19T12:02:10;9.23;;;6.43;;
17261;SDS011;9873;52.236;21.002;2023-04-19T12:12:13;9.40;;;6.65;;
17261;SDS011;9873;52.236;21.002;2023-04-19T12:22:16;7.63;;;5.53;;
17261;SDS011;9873;52.236;21.002;2023-04-19T12:32:27;6.72;;;6.00;;
17261;SDS011;9873;52.236;21.002;2023-04-19T12:42:29;8.25;;;6.20;;
17261;SDS011;9873;52.236;21.002;2023-04-19T12:52:34;5.80;;;5.13;;
17261;SDS011;9873;52.236;21.002;2023-04-19T13:02:37;6.78;;;4.13;;
17261;SDS011;9873;52.236;21.002;2023-04-19T13:12:43;5.88;;;4.97;;
17261;SDS011;9873;52.236;21.002;2023-04-19T13:22:45;7.88;;;5.65;;
17261;SDS011;9873;52.236;21.002;2023-04-19T13:32:57;8.63;;;5.20;;
17261;SDS011;9873;52.236;21.002;2023-04-19T13:43:02;9.52;;;5.00;;
17261;SDS011;9873;52.236;21.002;2023-04-19T13:53:04;9.82;;;5.55;;
17261;SDS011;9873;52.236;21.002;2023-04-19T14:03:06;7.03;;;5.70;;
17261;SDS011;9873;52.236;21.002;2023-04-19T14:13:12;7.65;;;5.70;;
17261;SDS011;9873;52.236;21.002;2023-04-19T14:23:14;7.88;;;5.85;;
17261;SDS011;9873;52.236;21.002;2023-04-19T14:33:18;6.22;;;5.32;;
17261;SDS011;9873;52.236;21.002;2023-04-19T14:43:22;7.93;;;6.07;;
17261;SDS011;9873;52.236;21.002;2023-04-19T14:53:26;6.85;;;5.15;;
17261;SDS011;9873;52.236;21.002;2023-04-19T15:03:36;8.15;;;6.00;;
17261;SDS011;9873;52.236;21.002;2023-04-19T15:13:42;8.25;;;6.13;;
17261;SDS011;9873;52.236;21.002;2023-04-19T15:23:44;7.07;;;5.28;;
17261;SDS011;9873;52.236;21.002;2023-04-19T15:33:51;6.38;;;3.50;;
17261;SDS011;9873;52.236;21.002;2023-04-19T15:43:56;5.82;;;3.67;;
17261;SDS011;9873;52.236;21.002;2023-04-19T15:54:05;7.80;;;4.70;;
17261;SDS011;9873;52.236;21.002;2023-04-19T16:04:09;9.07;;;5.28;;
17261;SDS011;9873;52.236;21.002;2023-04-19T16:14:17;6.55;;;4.63;;
17261;SDS011;9873;52.236;21.002;2023-04-19T16:24:21;6.15;;;4.38;;
17261;SDS011;9873;52.236;21.002;2023-04-19T16:34:24;6.65;;;3.97;;
17261;SDS011;9873;52.236;21.002;2023-04-19T16:44:26;6.87;;;4.63;;
17261;SDS011;9873;52.236;21.002;2023-04-19T16:54:33;10.63;;;5.90;;
17261;SDS011;9873;52.236;21.002;2023-04-19T17:04:40;8.23;;;5.47;;
17261;SDS011;9873;52.236;21.002;2023-04-19T17:14:45;12.95;;;8.35;;
17261;SDS011;9873;52.236;21.002;2023-04-19T17:24:50;14.65;;;9.20;;
17261;SDS011;9873;52.236;21.002;2023-04-19T17:34:57;11.70;;;7.35;;
17261;SDS011;9873;52.236;21.002;2023-04-19T17:45:00;9.93;;;7.45;;
17261;SDS011;9873;52.236;21.002;2023-04-19T17:55:06;10.88;;;8.45;;
17261;SDS011;9873;52.236;21.002;2023-04-19T18:05:08;15.48;;;9.60;;
17261;SDS011;9873;52.236;21.002;2023-04-19T18:15:14;18.38;;;12.82;;
17261;SDS011;9873;52.236;21.002;2023-04-19T18:25:22;19.98;;;12.50;;
17261;SDS011;9873;52.236;21.002;2023-04-19T18:35:25;21.10;;;14.17;;
17261;SDS011;9873;52.236;21.002;2023-04-19T18:45:33;18.23;;;13.67;;
17261;SDS011;9873;52.236;21.002;2023-04-19T18:55:40;16.70;;;11.70;;
17261;SDS011;9873;52.236;21.002;2023-04-19T19:05:42;17.75;;;9.80;;
17261;SDS011;9873;52.236;21.002;2023-04-19T19:15:45;11.33;;;7.40;;
17261;SDS011;9873;52.236;21.002;2023-04-19T19:25:49;11.60;;;3.63;;
17261;SDS011;9873;52.236;21.002;2023-04-19T19:35:56;6.68;;;4.50;;
17261;SDS011;9873;52.236;21.002;2023-04-19T19:46:02;12.10;;;4.88;;
17261;SDS011;9873;52.236;21.002;2023-04-19T19:56:09;8.93;;;4.97;;
17261;SDS011;9873;52.236;21.002;2023-04-19T20:06:22;8.90;;;5.63;;
17261;SDS011;9873;52.236;21.002;2023-04-19T20:16:30;6.18;;;4.50;;
17261;SDS011;9873;52.236;21.002;2023-04-19T20:26:32;11.43;;;5.47;;
17261;SDS011;9873;52.236;21.002;2023-04-19T20:36:34;10.07;;;6.40;;
17261;SDS011;9873;52.236;21.002;2023-04-19T20:46:39;10.60;;;6.60;;
17261;SDS011;9873;52.236;21.002;2023-04-19T20:56:45;10.98;;;7.45;;
17261;SDS011;9873;52.236;21.002;2023-04-19T21:06:48;8.82;;;5.90;;
17261;SDS011;9873;52.236;21.002;2023-04-19T21:16:53;10.73;;;6.03;;
17261;SDS011;9873;52.236;21.002;2023-04-19T21:26:56;9.48;;;5.38;;
17261;SDS011;9873;52.236;21.002;2023-04-19T21:37:03;7.85;;;5.40;;
17261;SDS011;9873;52.236;21.002;2023-04-19T21:47:09;8.93;;;5.55;;
17261;SDS011;9873;52.236;21.002;2023-04-19T21:57:18;9.45;;;6.35;;
17261;SDS011;9873;52.236;21.002;2023-04-19T22:07:28;10.60;;;6.53;;
17261;SDS011;9873;52.236;21.002;2023-04-19T22:17:43;9.93;;;6.78;;
17261;SDS011;9873;52.236;21.002;2023-04-19T22:27:48;11.15;;;7.50;;
17261;SDS011;9873;52.236;21.002;2023-04-19T22:37:52;9.60;;;6.85;;
17261;SDS011;9873;52.236;21.002;2023-04-19T22:48:01;10.98;;;6.45;;
17261;SDS011;9873;52.236;21.002;2023-04-19T22:58:08;11.10;;;7.28;;
17261;SDS011;9873;52.236;21.002;2023-04-19T23:08:16;10.57;;;6.47;;
17261;SDS011;9873;52.236;21.002;2023-04-19T23:18:24;12.23;;;6.90;;
17261;SDS011;9873;52.236;21.002;2023-04-19T23:28:32;10.70;;;7.60;;
17261;SDS011;9873;52.236;21.002;2023-04-19T23:38:34;11.87;;;6.83;;
17261;SDS011;9873;52.236;21.002;2023-04-19T23:48:36;11.87;;;6.50;;
17261;SDS011;9873;52.236;21.002;2023-04-19T23:58:45;10.20;;;6.97;;
